This is the latest recevied weather packets stored in our database for station/object YC2UTR-3. If no packets are shown the sender has not sent any weather packets the latest 10 day(s).
| Time | Temp. | Humidity | Pressure | Rain* | Wind** | Luminosity | Snow |
|---|---|---|---|---|---|---|---|
| 1788450699 | 29.44° C | 59% | 1013.3 hPa | - | - | - | - |
| 1788449799 | 29.44° C | 59% | 1013.3 hPa | - | - | - | - |
| 1788449499 | 29.44° C | 58% | 1013.6 hPa | - | - | - | - |
| 1788448899 | 29.44° C | 58% | 1013.6 hPa | - | - | - | - |
| 1788448299 | 30° C | 58% | 1013.5 hPa | - | - | - | - |
| 1788447999 | 30° C | 58% | 1013.5 hPa | - | - | - | - |
| 1788446499 | 28.89° C | 58% | 1011.6 hPa | - | - | - | - |
| 1788445899 | 30° C | 58% | 1013.4 hPa | - | - | - | - |
| 1788442298 | 30° C | 57% | 1013.3 hPa | - | - | - | - |
| 1788441998 | 30° C | 57% | 1013.1 hPa | - | - | - | - |
| 1788441698 | 30° C | 57% | 1013.1 hPa | - | - | - | - |
| 1788441398 | 30° C | 57% | 1013 hPa | - | - | - | - |
| 1788438698 | 30° C | 56% | 1012.3 hPa | - | - | - | - |
| 1788437198 | 30.56° C | 55% | 1012 hPa | - | - | - | - |
| 1788435398 | 31.11° C | 53% | 1012 hPa | - | - | - | - |
| 1788435098 | 30.56° C | 53% | 1011.6 hPa | - | - | - | - |
| 1788434498 | 31.11° C | 52% | 1011.8 hPa | - | - | - | - |
| 1788434198 | 31.11° C | 52% | 1011.5 hPa | - | - | - | - |
| 1788433898 | 31.11° C | 52% | 1011.7 hPa | - | - | - | - |
| 1788433598 | 31.11° C | 51% | 1011.7 hPa | - | - | - | - |
| 1788433298 | 31.11° C | 51% | 1011.6 hPa | - | - | - | - |
| 1788432998 | 31.11° C | 51% | 1011.6 hPa | - | - | - | - |
| 1788432698 | 31.11° C | 50% | 1011.6 hPa | - | - | - | - |
| 1788431798 | 31.67° C | 50% | 1011.3 hPa | - | - | - | - |
| 1788431498 | 31.67° C | 49% | 1011 hPa | - | - | - | - |
* Rain since midnight (hover to see other rain measurements)
** Current wind speed in m/s (hover to see current wind gust speed)